Time;durP1;ratioP1;P1;durP2;ratioP2;P2;SDS_P1;SDS_P2;PMS_P1;PMS_P2;Temp;Humidity;BMP_temperature;BMP_pressure;BME280_temperature;BME280_humidity;BME280_pressure;Samples;Min_cycle;Max_cycle;Signal;HPM_P1;HPM_P2
2021/12/06 00:00:37;;;;;;;9.02;8.63;;;8.70;76.60;;;;;;5046227;28;20028;-81
2021/12/06 00:03:05;;;;;;;8.82;8.43;;;8.70;76.60;;;;;;5039340;28;20048;-81
2021/12/06 00:05:32;;;;;;;8.63;8.23;;;8.60;76.60;;;;;;5049153;28;20021;-81
2021/12/06 00:07:58;;;;;;;8.73;8.32;;;8.60;76.60;;;;;;5047331;28;20414;-81
2021/12/06 00:10:24;;;;;;;8.55;8.15;;;8.70;76.60;;;;;;5048448;28;20517;-81
2021/12/06 00:12:50;;;;;;;8.00;7.60;;;8.70;76.60;;;;;;5030304;28;20049;-81
2021/12/06 00:15:16;;;;;;;7.70;7.38;;;8.70;76.60;;;;;;5047255;28;20037;-81
2021/12/06 00:17:42;;;;;;;7.70;7.38;;;8.70;76.50;;;;;;5030657;28;20474;-81
2021/12/06 00:20:10;;;;;;;7.68;7.38;;;8.70;76.50;;;;;;5048205;28;20029;-81
2021/12/06 00:22:36;;;;;;;8.07;7.68;;;8.70;76.50;;;;;;5037504;28;20045;-81
2021/12/06 00:25:03;;;;;;;7.90;7.50;;;8.70;76.50;;;;;;5029083;28;20044;-81
2021/12/06 00:27:29;;;;;;;8.10;7.70;;;8.70;76.50;;;;;;5048469;28;20077;-81
2021/12/06 00:29:55;;;;;;;6.90;6.60;;;8.80;76.60;;;;;;5030512;28;20048;-81
2021/12/06 00:32:22;;;;;;;8.23;7.78;;;8.80;76.50;;;;;;5048141;28;20049;-81
2021/12/06 00:34:48;;;;;;;7.82;7.43;;;8.80;76.50;;;;;;5048981;28;20040;-81
2021/12/06 00:37:30;;;;;;;7.55;7.25;;;8.70;76.50;;;;;;5045367;28;20032;-81
2021/12/06 00:39:59;;;;;;;7.88;7.50;;;8.70;76.50;;;;;;5032253;28;20037;-81
2021/12/06 00:42:28;;;;;;;7.88;7.50;;;8.70;76.50;;;;;;5045785;28;20478;-81
2021/12/06 00:44:54;;;;;;;8.88;8.48;;;8.70;76.60;;;;;;5045417;28;20021;-81
2021/12/06 00:47:20;;;;;;;8.23;7.82;;;8.70;76.50;;;;;;5045775;28;20056;-81
2021/12/06 00:49:47;;;;;;;8.25;7.85;;;8.80;76.60;;;;;;5048510;28;20040;-81
2021/12/06 00:52:14;;;;;;;8.88;8.48;;;8.70;76.50;;;;;;5030464;28;20041;-81
2021/12/06 00:54:40;;;;;;;8.00;7.60;;;8.70;76.50;;;;;;5046324;28;20040;-81
2021/12/06 00:57:07;;;;;;;8.55;8.15;;;8.70;76.50;;;;;;5048249;28;20386;-81
2021/12/06 00:59:34;;;;;;;8.80;8.32;;;8.70;76.60;;;;;;5044984;28;20036;-80
2021/12/06 01:02:00;;;;;;;8.38;7.97;;;8.70;76.60;;;;;;5028529;28;20068;-81
2021/12/06 01:04:28;;;;;;;9.55;8.90;;;8.70;76.60;;;;;;5048719;28;20386;-81
2021/12/06 01:06:54;;;;;;;8.40;8.00;;;8.70;76.60;;;;;;5046125;28;20032;-81
2021/12/06 01:09:21;;;;;;;8.45;8.05;;;8.70;76.60;;;;;;5029448;28;20053;-81
2021/12/06 01:11:47;;;;;;;8.70;8.30;;;8.80;76.70;;;;;;5045954;28;20393;-81
2021/12/06 01:14:13;;;;;;;8.45;8.05;;;8.70;76.70;;;;;;5042570;28;20071;-81
2021/12/06 01:16:39;;;;;;;8.65;8.25;;;8.80;76.70;;;;;;5050409;28;20037;-81
2021/12/06 01:19:05;;;;;;;8.98;8.57;;;8.70;76.60;;;;;;5048029;28;20041;-81
2021/12/06 01:22:02;;;;;;;8.75;8.35;;;8.70;76.70;;;;;;5048468;28;20485;-81
2021/12/06 01:24:36;;;;;;;9.05;8.65;;;8.70;76.80;;;;;;5047384;28;20044;-81
2021/12/06 01:40:27;;;;;;;8.35;7.95;;;8.60;77.00;;;;;;5052189;28;20025;-81
2021/12/06 01:42:53;;;;;;;8.80;8.40;;;8.60;76.90;;;;;;5050603;28;20033;-81
2021/12/06 01:45:19;;;;;;;8.45;8.05;;;8.60;76.90;;;;;;5032828;28;20398;-81
2021/12/06 01:47:46;;;;;;;9.10;8.70;;;8.60;77.00;;;;;;5047389;28;20060;-81
2021/12/06 01:50:19;;;;;;;8.68;8.27;;;8.60;77.00;;;;;;5051904;28;20056;-81
2021/12/06 01:52:50;;;;;;;9.00;8.50;;;8.60;77.00;;;;;;5052170;28;20040;-81
2021/12/06 01:55:19;;;;;;;8.90;8.50;;;8.60;77.00;;;;;;5051780;28;20025;-81
2021/12/06 01:57:46;;;;;;;9.10;8.70;;;8.60;77.00;;;;;;5051001;28;20056;-81
2021/12/06 02:00:15;;;;;;;8.75;8.35;;;8.60;77.10;;;;;;5049494;28;20500;-81
2021/12/06 02:02:43;;;;;;;8.50;8.10;;;8.60;77.10;;;;;;5033658;28;20381;-81
2021/12/06 02:05:09;;;;;;;8.82;8.43;;;8.50;77.00;;;;;;5050773;28;20035;-81
2021/12/06 02:07:35;;;;;;;9.00;8.60;;;8.60;77.10;;;;;;5052783;28;20029;-81
2021/12/06 02:10:04;;;;;;;8.80;8.40;;;8.60;77.10;;;;;;5030571;28;20478;-81
2021/12/06 02:12:31;;;;;;;9.07;8.68;;;8.60;77.10;;;;;;5046035;28;20044;-81
2021/12/06 02:15:29;;;;;;;9.05;8.65;;;8.60;77.00;;;;;;5036037;28;20375;-81
2021/12/06 02:18:07;;;;;;;9.00;8.60;;;8.60;77.00;;;;;;5048280;28;20497;-81
2021/12/06 02:20:41;;;;;;;8.75;8.35;;;8.60;77.00;;;;;;5049214;28;20037;-81
2021/12/06 02:23:07;;;;;;;8.70;8.30;;;8.60;76.90;;;;;;5050619;28;20029;-81
2021/12/06 02:25:33;;;;;;;9.13;8.73;;;8.60;76.90;;;;;;5050812;28;20028;-81
2021/12/06 02:27:59;;;;;;;8.90;8.50;;;8.60;76.90;;;;;;5049547;28;20396;-81
2021/12/06 02:30:25;;;;;;;8.90;8.50;;;8.60;76.90;;;;;;5050823;28;20394;-81
2021/12/06 02:32:52;;;;;;;8.10;7.70;;;8.60;77.00;;;;;;5034459;28;20436;-81
2021/12/06 02:35:20;;;;;;;8.75;8.35;;;8.70;77.00;;;;;;5050900;28;20032;-81
2021/12/06 02:37:47;;;;;;;8.98;8.57;;;8.60;77.70;;;;;;5049724;28;20036;-81
2021/12/06 02:40:20;;;;;;;8.95;8.55;;;8.60;77.00;;;;;;5033576;28;20486;-81
2021/12/06 02:42:46;;;;;;;9.02;8.60;;;8.60;77.00;;;;;;5042469;28;20029;-81
2021/12/06 02:45:15;;;;;;;9.52;8.65;;;8.60;77.00;;;;;;5032724;28;20055;-81
2021/12/06 02:47:41;;;;;;;8.88;8.48;;;8.60;77.00;;;;;;5048682;28;20066;-81
2021/12/06 02:50:09;;;;;;;8.38;7.97;;;8.70;77.10;;;;;;5032132;28;20047;-81
2021/12/06 02:52:35;;;;;;;8.68;8.27;;;8.70;77.10;;;;;;5047039;28;20037;-81
2021/12/06 02:55:10;;;;;;;9.40;8.90;;;8.60;77.00;;;;;;5049714;28;20028;-81
2021/12/06 02:57:38;;;;;;;8.32;7.90;;;8.70;77.10;;;;;;5032841;28;20036;-81
2021/12/06 03:00:08;;;;;;;8.82;8.43;;;8.60;77.10;;;;;;5048650;28;20040;-80
2021/12/06 03:02:35;;;;;;;9.05;8.55;;;8.60;77.20;;;;;;5030712;28;20044;-81
2021/12/06 03:05:01;;;;;;;8.73;8.32;;;8.60;77.20;;;;;;5042809;28;20044;-81
2021/12/06 03:07:28;;;;;;;8.80;8.40;;;8.60;77.20;;;;;;5023468;28;20037;-81
2021/12/06 03:09:55;;;;;;;8.93;8.53;;;8.60;77.20;;;;;;5058205;28;20392;-81
2021/12/06 03:12:24;;;;;;;28.30;8.90;;;8.60;77.20;;;;;;5021482;28;20048;-81
2021/12/06 03:14:55;;;;;;;8.85;8.45;;;8.60;77.10;;;;;;5054334;28;20040;-81
2021/12/06 03:17:23;;;;;;;9.02;8.63;;;8.60;77.10;;;;;;5026565;28;20029;-81
2021/12/06 03:19:49;;;;;;;8.60;8.20;;;8.60;77.10;;;;;;5017952;28;20044;-81
2021/12/06 03:22:16;;;;;;;8.25;7.85;;;8.60;77.20;;;;;;5033394;28;20029;-81
2021/12/06 03:24:42;;;;;;;9.02;8.60;;;8.60;77.30;;;;;;5041355;28;20067;-81
2021/12/06 03:27:08;;;;;;;7.97;7.57;;;8.60;77.40;;;;;;5059806;28;20099;-81
2021/12/06 03:29:34;;;;;;;8.32;7.93;;;8.60;77.40;;;;;;5035500;28;20033;-81
2021/12/06 03:32:01;;;;;;;8.50;8.10;;;8.60;77.40;;;;;;5047396;28;20375;-81
2021/12/06 03:34:28;;;;;;;8.20;7.80;;;8.60;77.40;;;;;;5054466;28;20041;-81
2021/12/06 03:36:55;;;;;;;8.70;8.30;;;8.50;77.30;;;;;;5050944;28;20409;-81
2021/12/06 03:39:24;;;;;;;8.07;7.68;;;8.50;77.30;;;;;;5030337;28;20060;-81
2021/12/06 03:41:52;;;;;;;8.60;8.13;;;8.50;77.30;;;;;;5033653;28;20406;-81
2021/12/06 03:44:20;;;;;;;8.67;8.27;;;8.50;77.40;;;;;;5034438;28;20041;-81
2021/12/06 03:46:47;;;;;;;10.03;7.60;;;8.50;77.30;;;;;;5031144;28;20053;-82
2021/12/06 03:49:14;;;;;;;7.68;7.38;;;8.50;77.30;;;;;;5052032;28;20039;-82
2021/12/06 03:51:40;;;;;;;7.53;7.22;;;8.50;77.30;;;;;;5045361;28;20037;-81
2021/12/06 03:54:07;;;;;;;7.93;7.53;;;8.50;77.30;;;;;;5058573;28;20048;-82
2021/12/06 03:56:38;;;;;;;8.57;8.17;;;8.50;77.30;;;;;;5049015;28;20036;-82
2021/12/06 03:59:04;;;;;;;8.35;7.95;;;8.50;77.30;;;;;;5033283;28;20039;-81
2021/12/06 04:01:31;;;;;;;8.30;7.90;;;8.50;77.30;;;;;;5050084;28;20041;-82
2021/12/06 04:03:58;;;;;;;9.10;8.23;;;8.50;77.40;;;;;;5048681;28;20029;-82
2021/12/06 04:06:25;;;;;;;9.10;8.45;;;8.50;77.40;;;;;;5048263;28;20393;-82
2021/12/06 04:08:51;;;;;;;9.35;8.85;;;8.40;77.40;;;;;;5047729;28;20228;-81
2021/12/06 04:11:17;;;;;;;9.30;8.53;;;8.40;77.50;;;;;;5050494;28;20048;-82
2021/12/06 04:13:43;;;;;;;8.57;8.17;;;8.40;77.60;;;;;;5050458;28;20041;-82
2021/12/06 04:16:09;;;;;;;8.90;8.30;;;8.30;77.50;;;;;;5023431;28;20040;-82
2021/12/06 04:18:35;;;;;;;8.07;7.47;;;8.30;77.60;;;;;;5029571;28;20048;-82
2021/12/06 04:21:03;;;;;;;7.95;7.57;;;8.30;77.60;;;;;;5036036;28;20041;-82
2021/12/06 04:23:29;;;;;;;7.93;7.53;;;8.30;77.60;;;;;;5046909;28;20029;-82
2021/12/06 04:25:55;;;;;;;8.17;7.77;;;8.30;77.60;;;;;;5049553;28;20036;-82
2021/12/06 04:28:22;;;;;;;7.77;7.43;;;8.30;77.60;;;;;;5033021;28;20037;-82
2021/12/06 04:30:48;;;;;;;6.95;6.65;;;8.30;77.60;;;;;;5045641;28;20036;-82
2021/12/06 04:33:14;;;;;;;7.57;7.22;;;8.30;77.70;;;;;;5030868;28;20053;-82
2021/12/06 04:35:41;;;;;;;8.17;7.77;;;8.30;77.60;;;;;;5031244;28;20425;-82
2021/12/06 04:38:08;;;;;;;7.73;7.40;;;8.30;77.60;;;;;;5044864;28;20021;-82
2021/12/06 04:40:34;;;;;;;7.63;7.32;;;8.30;77.60;;;;;;5048324;28;20389;-82
2021/12/06 04:43:00;;;;;;;8.10;7.70;;;8.30;77.60;;;;;;5046775;28;20409;-82
2021/12/06 04:45:26;;;;;;;8.15;7.75;;;8.40;77.60;;;;;;5047800;28;20033;-82
2021/12/06 04:47:54;;;;;;;8.47;7.87;;;8.30;77.60;;;;;;5048767;28;20037;-82
2021/12/06 04:50:24;;;;;;;8.18;7.78;;;8.30;77.60;;;;;;5031489;28;20045;-82
2021/12/06 04:52:54;;;;;;;7.50;7.20;;;8.30;77.70;;;;;;5048932;28;20041;-82
2021/12/06 04:55:28;;;;;;;7.87;7.47;;;8.30;77.70;;;;;;5049607;28;20031;-82
2021/12/06 04:57:55;;;;;;;7.70;7.38;;;8.30;77.60;;;;;;5047180;28;20029;-83
2021/12/06 05:00:35;;;;;;;8.17;7.77;;;8.30;77.60;;;;;;5046474;28;20505;-82
2021/12/06 05:03:02;;;;;;;7.75;7.43;;;8.30;77.60;;;;;;5032100;28;20520;-82
2021/12/06 05:05:38;;;;;;;8.70;8.18;;;8.30;77.60;;;;;;5046175;28;20036;-82
2021/12/06 05:08:16;;;;;;;8.10;7.70;;;8.40;77.60;;;;;;5028507;28;20044;-82
2021/12/06 05:10:42;;;;;;;8.00;7.60;;;8.30;77.60;;;;;;5048364;28;20022;-82
2021/12/06 05:13:09;;;;;;;7.28;6.97;;;8.30;77.60;;;;;;5030771;28;20063;-82
2021/12/06 05:15:35;;;;;;;7.55;7.25;;;8.30;77.60;;;;;;5032133;28;20036;-82
2021/12/06 05:18:01;;;;;;;7.47;7.18;;;8.30;77.60;;;;;;5032675;28;20033;-82
2021/12/06 05:20:27;;;;;;;7.10;6.80;;;8.30;77.70;;;;;;5051352;28;20025;-82
2021/12/06 05:22:54;;;;;;;7.20;6.90;;;8.30;77.70;;;;;;5035016;28;20180;-82
2021/12/06 05:25:23;;;;;;;7.85;7.45;;;8.30;77.60;;;;;;5036375;28;20029;-81
2021/12/06 05:27:50;;;;;;;7.80;7.43;;;8.40;77.60;;;;;;5036595;28;20410;-82
2021/12/06 05:30:16;;;;;;;7.97;7.57;;;8.30;77.60;;;;;;5034498;28;20037;-82
2021/12/06 05:32:43;;;;;;;8.68;8.27;;;8.30;77.60;;;;;;5046722;28;20044;-82
2021/12/06 05:35:09;;;;;;;8.23;7.83;;;8.40;77.60;;;;;;5050982;28;20032;-81
2021/12/06 05:37:48;;;;;;;8.80;8.40;;;8.40;77.60;;;;;;5052743;28;20040;-85
2021/12/06 05:40:16;;;;;;;8.50;8.10;;;8.40;77.60;;;;;;5037151;28;20508;-82
2021/12/06 05:42:43;;;;;;;8.38;7.90;;;8.40;77.60;;;;;;5052819;28;20470;-82
2021/12/06 05:45:09;;;;;;;8.60;8.20;;;8.40;77.60;;;;;;5028665;28;20072;-82
2021/12/06 05:47:35;;;;;;;8.95;8.55;;;8.40;77.70;;;;;;5024095;28;20512;-82
2021/12/06 05:50:02;;;;;;;8.77;8.38;;;8.40;77.60;;;;;;5052243;28;20512;-82
2021/12/06 05:52:29;;;;;;;8.75;8.35;;;8.30;77.50;;;;;;5036620;28;20033;-83
2021/12/06 05:54:55;;;;;;;9.02;8.52;;;8.40;77.60;;;;;;5018442;28;20037;-81
2021/12/06 05:57:21;;;;;;;8.55;8.15;;;8.30;77.60;;;;;;5032731;28;20060;-87
2021/12/06 05:59:47;;;;;;;8.27;7.88;;;8.30;77.60;;;;;;5051011;28;20040;-83
2021/12/06 06:02:14;;;;;;;8.13;7.72;;;8.30;77.60;;;;;;5034058;28;20037;-87
2021/12/06 06:04:40;;;;;;;8.35;7.95;;;8.30;77.70;;;;;;5052512;28;20037;-86
2021/12/06 06:07:06;;;;;;;8.60;8.20;;;8.30;77.70;;;;;;5052051;28;20029;-87
2021/12/06 06:09:33;;;;;;;8.20;7.80;;;8.30;77.70;;;;;;5050625;28;20025;-83
2021/12/06 06:11:59;;;;;;;8.80;8.40;;;8.30;78.50;;;;;;5041262;28;20021;-83
2021/12/06 06:14:25;;;;;;;8.30;7.90;;;8.30;77.80;;;;;;5051187;28;20039;-86
2021/12/06 06:16:53;;;;;;;9.13;8.73;;;8.30;77.80;;;;;;5053808;28;20033;-83
2021/12/06 06:19:21;;;;;;;8.93;8.52;;;8.20;77.70;;;;;;5053393;28;20032;-86
2021/12/06 06:21:48;;;;;;;8.40;8.00;;;8.20;77.70;;;;;;5035247;28;20048;-86
2021/12/06 06:24:14;;;;;;;9.18;8.77;;;8.20;77.80;;;;;;5049668;28;20048;-83
2021/12/06 06:26:40;;;;;;;8.15;7.75;;;8.20;77.80;;;;;;5052694;28;20033;-86
2021/12/06 06:29:06;;;;;;;8.88;8.43;;;8.20;77.80;;;;;;5051677;28;20036;-82
2021/12/06 06:31:32;;;;;;;8.05;7.65;;;8.20;77.80;;;;;;5053842;28;20037;-88
2021/12/06 06:33:59;;;;;;;8.50;8.10;;;8.10;77.80;;;;;;5052305;28;20048;-83
2021/12/06 06:36:25;;;;;;;8.77;8.38;;;8.20;77.90;;;;;;5053106;28;20037;-86
2021/12/06 06:38:51;;;;;;;8.10;7.70;;;8.10;77.80;;;;;;5051653;28;20496;-83
2021/12/06 06:41:17;;;;;;;8.30;7.90;;;8.20;77.80;;;;;;5049823;28;20033;-82
2021/12/06 06:43:43;;;;;;;8.30;7.90;;;8.10;77.80;;;;;;5052154;28;20060;-84
2021/12/06 06:46:09;;;;;;;8.05;7.65;;;8.10;77.80;;;;;;5052175;28;20389;-84
2021/12/06 06:48:35;;;;;;;26.93;8.67;;;8.10;77.80;;;;;;5052614;28;20049;-84
2021/12/06 06:51:01;;;;;;;8.30;7.90;;;8.10;78.60;;;;;;5035109;28;20033;-84
2021/12/06 06:53:27;;;;;;;8.20;7.80;;;8.10;77.80;;;;;;5034914;28;20494;-84
2021/12/06 06:55:54;;;;;;;8.75;8.35;;;8.10;77.80;;;;;;5051872;28;20374;-84
2021/12/06 06:58:20;;;;;;;8.48;8.02;;;8.10;77.80;;;;;;5036579;28;20036;-84
2021/12/06 07:00:47;;;;;;;7.75;7.38;;;8.10;77.80;;;;;;5034257;28;20037;-84
2021/12/06 07:03:13;;;;;;;7.93;7.53;;;8.10;77.80;;;;;;5034728;28;20036;-83
2021/12/06 07:05:39;;;;;;;8.37;7.97;;;8.10;77.80;;;;;;5035131;28;20410;-84
2021/12/06 07:08:05;;;;;;;8.13;7.72;;;8.10;77.80;;;;;;5052155;28;20029;-84
2021/12/06 07:10:31;;;;;;;7.97;7.57;;;8.10;77.80;;;;;;5035631;28;20041;-84
2021/12/06 07:13:00;;;;;;;8.30;7.90;;;8.10;77.80;;;;;;5051877;28;20367;-83
2021/12/06 07:15:28;;;;;;;12.80;8.67;;;8.10;77.80;;;;;;5034714;28;20517;-84
2021/12/06 07:17:55;;;;;;;8.03;7.63;;;8.10;77.80;;;;;;5034740;28;20036;-84
2021/12/06 07:20:21;;;;;;;9.43;9.02;;;8.10;77.80;;;;;;5034614;28;20045;-83
2021/12/06 07:22:48;;;;;;;7.90;7.50;;;8.10;77.80;;;;;;5034870;28;20037;-84
2021/12/06 07:25:15;;;;;;;8.30;7.80;;;8.10;77.80;;;;;;5035083;28;20041;-83
2021/12/06 07:27:42;;;;;;;10.30;8.87;;;8.10;77.80;;;;;;5034815;28;20037;-84
2021/12/06 07:30:09;;;;;;;7.93;7.53;;;8.10;77.80;;;;;;5051257;28;20504;-84
2021/12/06 07:32:35;;;;;;;8.20;7.80;;;8.10;77.90;;;;;;5051304;28;20036;-84
2021/12/06 07:35:02;;;;;;;8.30;7.90;;;8.10;77.90;;;;;;5051577;28;20036;-84
2021/12/06 07:37:28;;;;;;;7.93;7.50;;;8.10;77.90;;;;;;5051995;28;20025;-84
2021/12/06 07:39:54;;;;;;;9.07;8.20;;;8.00;77.80;;;;;;5033354;28;20041;-83
2021/12/06 07:42:20;;;;;;;7.93;7.53;;;8.10;77.90;;;;;;5050947;28;20033;-84
2021/12/06 07:44:46;;;;;;;12.68;8.30;;;8.00;77.80;;;;;;5051532;28;20025;-84
2021/12/06 07:47:13;;;;;;;9.40;8.65;;;8.00;77.80;;;;;;5050760;28;20508;-84
2021/12/06 07:49:39;;;;;;;8.00;7.60;;;8.10;77.90;;;;;;5051947;28;20025;-84
2021/12/06 07:52:05;;;;;;;8.20;7.80;;;8.10;77.90;;;;;;5034867;28;20021;-83
2021/12/06 07:54:32;;;;;;;7.97;7.57;;;8.00;77.80;;;;;;5050455;28;20037;-84
2021/12/06 07:56:58;;;;;;;8.57;8.17;;;8.00;77.80;;;;;;5051074;28;20021;-84
2021/12/06 07:59:24;;;;;;;8.67;8.27;;;8.10;77.80;;;;;;5034212;28;20037;-84
2021/12/06 08:01:51;;;;;;;8.70;8.30;;;8.00;77.80;;;;;;5033458;28;20033;-84
2021/12/06 08:04:17;;;;;;;8.63;8.23;;;8.00;77.80;;;;;;5051445;28;20425;-84
2021/12/06 08:06:43;;;;;;;8.53;8.10;;;8.00;77.80;;;;;;5050631;28;20493;-84
2021/12/06 08:09:09;;;;;;;8.83;8.43;;;8.00;77.80;;;;;;5050239;28;20025;-85
2021/12/06 08:11:35;;;;;;;8.80;8.40;;;8.10;77.80;;;;;;5033719;28;20044;-86
2021/12/06 08:14:02;;;;;;;8.20;7.80;;;8.10;77.90;;;;;;5026437;28;20072;-88
2021/12/06 08:16:30;;;;;;;8.00;7.60;;;8.10;77.80;;;;;;5051051;28;20021;-85
2021/12/06 08:18:58;;;;;;;8.80;8.40;;;8.10;77.80;;;;;;5050183;28;20029;-85
2021/12/06 08:21:25;;;;;;;8.07;7.67;;;8.10;77.80;;;;;;5033441;28;20474;-84
2021/12/06 08:23:51;;;;;;;8.13;7.73;;;8.10;77.70;;;;;;5033728;28;20037;-84
2021/12/06 08:26:19;;;;;;;9.37;8.70;;;8.10;77.70;;;;;;5047464;28;20044;-84
2021/12/06 08:28:45;;;;;;;8.67;8.27;;;8.20;77.70;;;;;;5033659;28;20096;-85
2021/12/06 08:31:12;;;;;;;8.73;8.32;;;8.20;77.60;;;;;;5032417;28;20029;-84
2021/12/06 08:33:38;;;;;;;7.88;7.47;;;8.30;77.70;;;;;;5043408;28;20037;-83
2021/12/06 08:36:05;;;;;;;7.63;7.25;;;8.30;77.80;;;;;;5047552;28;20029;-84
2021/12/06 08:38:32;;;;;;;8.18;7.78;;;8.50;77.70;;;;;;5047468;28;20021;-84
2021/12/06 08:40:59;;;;;;;10.18;7.68;;;8.80;77.50;;;;;;5049705;28;20044;-82
2021/12/06 08:43:27;;;;;;;8.38;7.75;;;9.00;77.20;;;;;;5050522;28;20055;-83
2021/12/06 08:45:58;;;;;;;7.47;7.18;;;9.20;77.00;;;;;;5046793;28;20037;-83
2021/12/06 08:48:25;;;;;;;;;;;9.40;76.80;;;;;;5033539;28;20485;-85
2021/12/06 08:50:53;;;;;;;7.50;7.18;;;9.50;76.60;;;;;;5047158;28;20379;-84
2021/12/06 08:53:19;;;;;;;7.93;7.53;;;9.70;76.40;;;;;;5048507;28;20036;-83
2021/12/06 08:55:45;;;;;;;7.53;7.22;;;9.80;76.30;;;;;;5049431;28;20068;-83
2021/12/06 08:58:11;;;;;;;7.38;7.07;;;10.00;77.20;;;;;;5049605;28;20029;-84
2021/12/06 09:00:37;;;;;;;7.53;7.18;;;10.10;76.40;;;;;;5049124;28;20029;-82
2021/12/06 09:03:04;;;;;;;6.72;6.43;;;10.30;76.40;;;;;;5043062;28;20036;-85
2021/12/06 09:05:33;;;;;;;7.20;6.85;;;10.40;76.30;;;;;;5047475;28;20083;-85
2021/12/06 09:07:59;;;;;;;7.25;6.88;;;10.50;76.30;;;;;;5048642;28;20041;-86
2021/12/06 09:10:25;;;;;;;7.35;6.95;;;10.70;76.40;;;;;;5032780;28;20409;-87
2021/12/06 09:12:51;;;;;;;7.25;6.95;;;10.70;76.30;;;;;;5047226;28;20033;-86
2021/12/06 09:15:19;;;;;;;7.03;6.72;;;10.70;76.40;;;;;;5046468;28;20041;-86
2021/12/06 09:17:45;;;;;;;6.90;6.60;;;10.80;76.60;;;;;;5043060;28;20029;-88
2021/12/06 09:20:12;;;;;;;7.00;6.70;;;10.80;76.50;;;;;;5050316;28;20026;-88
2021/12/06 09:22:38;;;;;;;6.57;6.28;;;10.90;76.70;;;;;;5029722;28;20596;-84
2021/12/06 09:25:05;;;;;;;6.85;6.55;;;10.90;76.70;;;;;;5043434;28;20469;-82
2021/12/06 09:27:32;;;;;;;6.93;6.63;;;11.00;76.90;;;;;;5047089;28;20037;-85
2021/12/06 09:29:58;;;;;;;7.00;6.70;;;11.00;76.90;;;;;;5046655;28;20029;-82
2021/12/06 09:32:24;;;;;;;7.05;6.75;;;11.00;77.00;;;;;;5050055;28;20036;-90
2021/12/06 09:34:54;;;;;;;8.68;8.18;;;11.00;77.10;;;;;;5032106;28;20049;-86
2021/12/06 09:37:20;;;;;;;6.80;6.50;;;11.10;77.10;;;;;;5047816;28;20036;-84
2021/12/06 09:39:47;;;;;;;8.13;7.72;;;11.10;77.10;;;;;;5046823;28;20033;-88
2021/12/06 09:42:13;;;;;;;8.48;8.07;;;11.00;77.10;;;;;;5048968;28;20389;-89
2021/12/06 09:44:39;;;;;;;8.35;7.65;;;11.00;77.30;;;;;;5048776;28;20044;-87
2021/12/06 09:47:06;;;;;;;8.55;8.15;;;11.00;77.40;;;;;;5047088;28;20048;-87
2021/12/06 09:49:32;;;;;;;8.52;8.02;;;11.00;77.40;;;;;;5033215;28;20036;-84
2021/12/06 09:52:01;;;;;;;8.07;7.68;;;11.00;77.40;;;;;;5048015;28;20029;-83
2021/12/06 09:54:35;;;;;;;8.20;7.80;;;11.00;77.20;;;;;;5042481;28;20153;-85
2021/12/06 09:57:02;;;;;;;10.60;9.90;;;11.00;77.30;;;;;;5049390;28;20017;-82
2021/12/06 09:59:28;;;;;;;9.40;9.00;;;10.90;77.20;;;;;;5049417;28;20427;-83
2021/12/06 10:01:57;;;;;;;10.07;9.57;;;10.90;77.30;;;;;;5046762;28;20029;-85
2021/12/06 10:04:25;;;;;;;8.82;8.43;;;10.90;77.40;;;;;;5051805;28;20040;-86
2021/12/06 10:06:52;;;;;;;9.85;9.43;;;11.00;77.40;;;;;;5019023;28;20390;-86
2021/12/06 10:09:18;;;;;;;9.98;9.48;;;11.10;77.20;;;;;;5054115;28;20048;-85
2021/12/06 10:11:45;;;;;;;9.30;8.90;;;11.10;76.90;;;;;;5035923;28;20025;-84
2021/12/06 10:14:11;;;;;;;10.13;9.63;;;11.20;76.80;;;;;;5053385;28;20033;-83
2021/12/06 10:16:38;;;;;;;10.63;10.13;;;11.30;76.60;;;;;;5053238;28;20044;-86
2021/12/06 10:19:05;;;;;;;12.63;9.93;;;11.40;76.50;;;;;;5035629;28;20480;-85
2021/12/06 10:21:33;;;;;;;10.13;9.63;;;11.50;76.30;;;;;;5051970;28;20024;-84
2021/12/06 10:23:59;;;;;;;11.00;10.50;;;11.60;75.90;;;;;;5043319;28;20477;-86
2021/12/06 10:26:30;;;;;;;10.30;9.80;;;11.60;75.80;;;;;;5052428;28;20040;-81
2021/12/06 10:28:58;;;;;;;10.35;9.85;;;11.60;75.70;;;;;;5053847;28;20029;-79
2021/12/06 10:31:25;;;;;;;10.52;10.02;;;11.60;75.80;;;;;;5036422;28;20048;-79
2021/12/06 10:33:52;;;;;;;10.70;10.20;;;11.60;75.80;;;;;;5051734;28;20052;-81
2021/12/06 10:36:18;;;;;;;10.93;10.43;;;11.60;75.70;;;;;;5053933;28;20032;-89
2021/12/06 10:38:53;;;;;;;10.65;10.15;;;11.60;75.70;;;;;;5035985;28;20037;-88
2021/12/06 10:41:25;;;;;;;11.40;10.90;;;11.70;75.70;;;;;;5053034;28;20520;-88
2021/12/06 10:43:57;;;;;;;10.75;10.25;;;11.70;75.60;;;;;;5051798;28;20029;-89
2021/12/06 10:46:24;;;;;;;10.68;10.18;;;11.70;75.70;;;;;;5047645;28;20025;-79
2021/12/06 10:48:51;;;;;;;10.45;9.95;;;11.70;75.70;;;;;;5051949;28;20123;-83
2021/12/06 10:51:18;;;;;;;11.25;10.75;;;11.70;75.70;;;;;;5052593;28;20028;-85
2021/12/06 10:54:06;;;;;;;12.70;12.05;;;11.70;75.70;;;;;;5052283;28;20481;-84
2021/12/06 10:56:45;;;;;;;12.52;11.93;;;11.70;75.70;;;;;;5052257;28;20033;-82
2021/12/06 10:59:23;;;;;;;12.50;11.90;;;11.60;75.60;;;;;;5036674;28;20029;-82
2021/12/06 11:01:52;;;;;;;12.15;11.55;;;11.50;75.70;;;;;;5051874;28;20037;-85
2021/12/06 11:04:21;;;;;;;11.73;11.23;;;11.50;75.80;;;;;;5052148;28;20032;-81
2021/12/06 11:06:49;;;;;;;13.10;12.50;;;11.50;75.80;;;;;;5048778;28;20371;-81
2021/12/06 11:09:24;;;;;;;12.10;11.50;;;11.30;75.80;;;;;;5050963;28;20033;-83
2021/12/06 11:11:57;;;;;;;11.23;10.63;;;11.30;75.90;;;;;;5034674;28;20051;-82
2021/12/06 11:14:30;;;;;;;11.45;10.95;;;11.20;75.90;;;;;;5034055;28;20434;-84
2021/12/06 11:16:58;;;;;;;11.52;10.98;;;11.30;76.10;;;;;;5051289;28;20037;-84
2021/12/06 11:19:26;;;;;;;10.73;10.20;;;11.30;76.00;;;;;;5052644;28;20029;-83
2021/12/06 11:22:00;;;;;;;11.05;10.45;;;11.40;76.00;;;;;;5034706;28;20037;-82
2021/12/06 11:24:38;;;;;;;10.75;10.25;;;11.40;75.90;;;;;;5051415;28;20502;-84
2021/12/06 11:27:17;;;;;;;10.60;10.10;;;11.40;75.80;;;;;;5035755;28;20540;-81
2021/12/06 11:29:50;;;;;;;8.82;8.43;;;11.40;75.80;;;;;;5051694;28;20036;-80
2021/12/06 11:32:28;;;;;;;9.30;8.80;;;11.50;75.90;;;;;;5050357;28;20037;-81
2021/12/06 11:35:06;;;;;;;9.15;8.75;;;11.40;75.80;;;;;;5051756;28;20042;-80
2021/12/06 11:37:37;;;;;;;8.60;8.20;;;11.50;75.90;;;;;;5067461;28;20390;-79
2021/12/06 11:40:13;;;;;;;8.30;7.90;;;11.50;76.20;;;;;;5034454;28;20033;-79
2021/12/06 11:42:51;;;;;;;8.45;8.05;;;11.60;76.00;;;;;;5033959;28;20394;-79
2021/12/06 11:45:52;;;;;;;9.80;8.95;;;11.60;75.90;;;;;;5050232;28;20378;-81
2021/12/06 11:48:29;;;;;;;10.52;10.02;;;11.70;75.90;;;;;;4990014;28;20061;-80
2021/12/06 11:50:58;;;;;;;10.60;10.07;;;11.70;75.70;;;;;;4975579;28;20042;-83
2021/12/06 11:53:29;;;;;;;11.65;11.05;;;11.60;75.60;;;;;;4974712;28;20030;-83
2021/12/06 11:56:00;;;;;;;11.65;11.15;;;11.60;75.70;;;;;;4974716;28;20049;-83
2021/12/06 11:58:35;;;;;;;11.87;11.37;;;11.50;75.80;;;;;;4990894;28;20620;-84
2021/12/06 12:01:09;;;;;;;12.35;11.75;;;11.50;75.90;;;;;;4973596;28;20330;-84
2021/12/06 12:03:35;;;;;;;11.82;11.27;;;11.40;76.00;;;;;;4974703;28;20483;-82
2021/12/06 12:06:01;;;;;;;11.20;10.70;;;11.30;76.00;;;;;;4974207;28;20039;-82
2021/12/06 12:08:34;;;;;;;11.82;11.27;;;11.30;76.00;;;;;;4956940;28;20034;-82
2021/12/06 12:11:00;;;;;;;11.63;11.13;;;11.30;76.00;;;;;;4958596;28;20042;-83
2021/12/06 12:13:34;;;;;;;12.10;11.30;;;11.30;75.90;;;;;;4973728;28;20057;-83
2021/12/06 12:16:06;;;;;;;12.02;11.35;;;11.20;75.80;;;;;;4969992;28;20038;-83
2021/12/06 12:18:35;;;;;;;11.10;10.60;;;11.20;75.80;;;;;;4967261;28;20050;-82
2021/12/06 12:21:01;;;;;;;11.70;11.20;;;11.20;75.80;;;;;;4975396;28;20030;-82
2021/12/06 12:23:31;;;;;;;11.52;11.02;;;11.10;75.70;;;;;;4975542;28;20045;-83
2021/12/06 12:26:03;;;;;;;12.20;11.60;;;11.10;75.70;;;;;;5050185;28;20029;-82
2021/12/06 12:28:38;;;;;;;11.30;10.80;;;11.10;75.70;;;;;;5035318;28;20029;-81
2021/12/06 12:31:06;;;;;;;11.13;10.63;;;11.10;75.90;;;;;;5044652;28;20033;-80
2021/12/06 12:33:33;;;;;;;11.55;11.05;;;11.00;75.60;;;;;;5029579;28;20051;-81
2021/12/06 12:36:06;;;;;;;10.95;10.45;;;11.10;75.70;;;;;;5045603;28;20038;-82
2021/12/06 12:38:36;;;;;;;11.73;11.23;;;11.00;75.60;;;;;;5033289;28;20041;-81
2021/12/06 12:41:08;;;;;;;11.75;11.15;;;11.00;75.60;;;;;;5049961;28;20032;-82
2021/12/06 12:43:38;;;;;;;10.63;10.13;;;11.00;75.60;;;;;;5050163;28;20059;-81
2021/12/06 12:46:13;;;;;;;10.20;9.70;;;11.00;75.60;;;;;;5050603;28;20397;-75
2021/12/06 12:48:51;;;;;;;10.27;9.77;;;11.00;75.60;;;;;;5048734;28;20485;-82
2021/12/06 12:51:20;;;;;;;10.32;9.82;;;11.00;75.60;;;;;;5043303;28;20028;-80
2021/12/06 12:54:05;;;;;;;11.10;10.52;;;10.90;75.50;;;;;;5048536;28;20025;-82
2021/12/06 12:56:43;;;;;;;10.50;10.00;;;10.90;75.60;;;;;;5050279;28;20047;-80
2021/12/06 12:59:28;;;;;;;10.70;10.20;;;10.90;75.50;;;;;;5039796;28;20047;-79
2021/12/06 13:02:13;;;;;;;11.32;10.73;;;10.80;75.50;;;;;;5045357;28;20038;-80
2021/12/06 13:04:58;;;;;;;11.68;11.07;;;10.80;75.60;;;;;;5048122;28;20029;-80
2021/12/06 13:07:33;;;;;;;13.00;11.63;;;10.70;75.70;;;;;;5049387;28;20033;-80
2021/12/06 13:10:31;;;;;;;11.90;11.40;;;10.70;75.80;;;;;;5049421;28;20036;-80